Terminal Aerodrome Forecast
Issued by NWS

Home | Current Version | Previous Version | Text Only | Print | Product List | Glossary On
Versions: 1 2 3 4 5 6 7 8 9 10 11 12 13 14 15
489
FTUS41 KCAR 231137
TAFFVE
TAF
KFVE 231137Z 2312/2412 VRB03KT P6SM OVC100
     FM231400 17004KT P6SM -PL OVC030
     FM231900 19006KT 3SM -SHRA OVC015 WS020/21035KT
     FM240000 22007KT 2SM -SHRA OVC015 WS020/23040KT
     FM240200 24008KT 4SM BR BKN010
     FM240400 28009KT 2SM BR SCT030=

USA.gov is the U.S. government's official web portal to all federal, state and local government web resources and services.